Flight Track Log - Related Links

Times and Time Zones

All times are in EDT time to prevent confusion due to time zone crossing. See the SWA2975 flight status page for this flight to view local times or setup timezone preferences in your user account.

Time Position Orientation Groundspeed Altitude Reporting Facility
EDT Latitude Longitude Course Direction KTS MPH feet Rate Location/Type
Tue 10:52:10 PM 41.7980 -87.7250 84° East 159 183 1,900  Level FlightAware ADS-B
Tue 10:52:39 PM 41.7990 -87.6940 88° East 210 242 2,500 1,778 Climbing FlightAware ADS-B
Tue 10:53:04 PM 41.8000 -87.6580 88° East 220 253 3,500 2,057 Climbing FlightAware ADS-B
Tue 10:53:49 PM 41.8020 -87.5920 88° East 267 307 4,900 1,200 Climbing FlightAware ADS-B
Tue 10:54:14 PM 41.8040 -87.5490 86° East 269 310 4,900  Level FlightAware ADS-B
Tue 10:54:26 PM 41.8050 -87.5280 86° East 270 311 4,900 1,895 Level FlightAware ADS-B
Tue 10:54:52 PM 41.8010 -87.4840 97° East 270 311 6,100 3,310 Climbing FlightAware ADS-B
Tue 10:55:24 PM 41.7960 -87.4300 97° East 276 318 8,100 3,484 Climbing FlightAware ADS-B
Tue 10:55:54 PM 41.7910 -87.3790 97° East 288 331 9,700 3,176 Climbing FlightAware ADS-B
Tue 10:56:32 PM 41.7850 -87.3100 97° East 302 348 11,700 3,286 Climbing FlightAware ADS-B
Tue 10:57:18 PM 41.7770 -87.2240 97° East 308 354 14,300 2,897 Climbing FlightAware ADS-B
Tue 10:57:59 PM 41.7850 -87.1450 82° East 341 392 15,900 1,200 Climbing FlightAware ADS-B
Tue 10:58:38 PM 41.8230 -87.0740 54° Northeast 390 449 15,900  Level FlightAware ADS-B
Tue 10:59:18 PM 41.8660 -86.9910 55° Northeast 404 465 15,900 876 Level FlightAware ADS-B
Tue 11:00:07 PM 41.9050 -86.8860 63° Northeast 404 465 17,200 1,950 Climbing FlightAware ADS-B
Tue 11:00:38 PM 41.9090 -86.8040 86° East 417 480 18,500 2,320 Climbing FlightAware ADS-B
Tue 11:01:22 PM 41.9130 -86.6870 87° East 433 498 20,100 2,214 Climbing FlightAware ADS-B
Tue 11:02:02 PM 41.9160 -86.5790 88° East 445 512 21,600 2,154 Climbing FlightAware ADS-B
Tue 11:02:40 PM 41.9200 -86.4740 87° East 455 524 22,900 1,976 Climbing FlightAware ADS-B
Tue 11:03:24 PM 41.9230 -86.3480 88° East 465 535 24,300 1,846 Climbing FlightAware ADS-B
Tue 11:04:11 PM 41.9270 -86.2080 88° East 474 545 25,700 1,744 Climbing FlightAware ADS-B
Tue 11:04:50 PM 41.9310 -86.0920 87° East 484 557 26,800 1,579 Climbing FlightAware ADS-B
Tue 11:05:27 PM 41.9340 -85.9850 88° East 490 564 27,700 1,816 Climbing FlightAware ADS-B
Tue 11:06:06 PM 41.9370 -85.8640 88° East 484 557 29,100 2,530 Climbing FlightAware ADS-B
Tue 11:06:50 PM 41.9400 -85.7350 88° East 466 536 31,200 1,714 Climbing FlightAware ADS-B
Tue 11:07:30 PM 41.9430 -85.6220 88° East 485 558 31,500 583 Climbing FlightAware ADS-B
Tue 11:08:02 PM 41.9450 -85.5200 88° East 497 572 31,900 1,014 Climbing FlightAware ADS-B
Tue 11:08:41 PM 41.9470 -85.4010 89° East 502 578 32,700 1,286 Climbing FlightAware ADS-B
Tue 11:09:26 PM 41.9510 -85.2620 88° East 502 578 33,700 1,333 Climbing FlightAware ADS-B
Tue 11:10:20 PM 41.9510 -85.0900 90° East 498 573 34,900 830 Climbing FlightAware ADS-B
Tue 11:11:00 PM 41.9500 -84.9660 91° East 501 577 35,000 75 Climbing FlightAware ADS-B
Tue 11:11:40 PM 41.9490 -84.8430 91° East 502 578 35,000  Level FlightAware ADS-B
Tue 11:12:26 PM 41.9490 -84.6990 90° East 501 577 35,000  Level FlightAware ADS-B
Tue 11:13:06 PM 41.9480 -84.5840 91° East 502 578 35,000  Level FlightAware ADS-B
Tue 11:13:50 PM 41.9470 -84.4430 90° East 502 578 35,000  Level FlightAware ADS-B
Tue 11:14:26 PM 41.9460 -84.3330 91° East 503 579 35,000  Level FlightAware ADS-B
Tue 11:15:19 PM 41.9620 -84.1630 83° East 517 595 35,000  Level FlightAware ADS-B
Tue 11:15:59 PM 41.9780 -84.0360 80° East 516 594 35,000  Level FlightAware ADS-B
Tue 11:16:37 PM 41.9930 -83.9140 81° East 516 594 35,000  Level FlightAware ADS-B
Tue 11:17:23 PM 42.0100 -83.7700 81° East 516 594 35,000  Level FlightAware ADS-B
Tue 11:18:03 PM 42.0250 -83.6440 81° East 516 594 35,000  Level FlightAware ADS-B
Tue 11:18:45 PM 42.0400 -83.5110 81° East 515 593 35,000  Level FlightAware ADS-B
Tue 11:19:27 PM 42.0560 -83.3770 81° East 513 590 35,000  Level FlightAware ADS-B
Tue 11:20:07 PM 42.0700 -83.2520 81° East 512 589 35,000  Level FlightAware ADS-B
Tue 11:20:50 PM 42.1010 -83.1190 73° East 531 611 35,000  Level FlightAware ADS-B
Tue 11:21:27 PM 42.1360 -83.0070 67° East 533 613 35,000  Level FlightAware ADS-B
Tue 11:22:07 PM 42.1790 -82.8880 64° Northeast 533 613 35,000  Level FlightAware ADS-B
Tue 11:22:49 PM 42.2230 -82.7630 65° Northeast 532 612 35,000  Level FlightAware ADS-B
Tue 11:23:27 PM 42.2620 -82.6500 65° Northeast 531 611 35,000  Level FlightAware ADS-B
Tue 11:24:05 PM 42.3000 -82.5360 66° East 529 609 35,000  Level FlightAware ADS-B
Tue 11:24:49 PM 42.3440 -82.4020 66° East 527 606 35,000  Level FlightAware ADS-B
Tue 11:25:27 PM 42.3800 -82.2850 67° East 528 608 35,000  Level FlightAware ADS-B
Tue 11:26:29 PM 42.4380 -82.0990 67° East 529 609 35,000  Level FlightAware ADS-B
Tue 11:27:06 PM 42.4720 -81.9890 67° East 529 609 35,000  Level FlightAware ADS-B
Tue 11:27:48 PM 42.5130 -81.8540 68° East 528 608 35,000  Level FlightAware ADS-B
Tue 11:28:27 PM 42.5500 -81.7370 67° East 528 608 35,000  Level FlightAware ADS-B
Tue 11:29:08 PM 42.5880 -81.6190 66° East 528 608 35,000  Level FlightAware ADS-B
Tue 11:29:48 PM 42.6190 -81.4990 71° East 516 594 35,000  Level FlightAware ADS-B
Tue 11:30:27 PM 42.6220 -81.3870 88° East 495 570 35,000  Level FlightAware ADS-B
Tue 11:31:07 PM 42.6260 -81.2490 88° East 505 581 35,000  Level FlightAware ADS-B
Tue 11:31:47 PM 42.6330 -81.1140 86° East 505 581 35,000  Level FlightAware ADS-B
Tue 11:32:27 PM 42.6380 -80.9920 87° East 504 580 35,000  Level FlightAware ADS-B
Tue 11:33:13 PM 42.6440 -80.8560 87° East 504 580 35,000  Level FlightAware ADS-B
Tue 11:33:57 PM 42.6510 -80.7010 86° East 505 581 35,000  Level FlightAware ADS-B
Tue 11:34:37 PM 42.6570 -80.5740 86° East 507 583 35,000  Level FlightAware ADS-B
Tue 11:35:20 PM 42.6620 -80.4390 87° East 507 583 35,000  Level FlightAware ADS-B
Tue 11:35:54 PM 42.6670 -80.3310 86° East 507 583 35,000  Level FlightAware ADS-B
Tue 11:36:37 PM 42.6720 -80.1920 87° East 507 583 35,000  Level FlightAware ADS-B
Tue 11:37:18 PM 42.6770 -80.0650 87° East 507 583 35,000  Level FlightAware ADS-B
Tue 11:37:54 PM 42.6820 -79.9510 87° East 507 583 35,000  Level FlightAware ADS-B
Tue 11:38:33 PM 42.6870 -79.8260 87° East 507 583 35,000  Level FlightAware ADS-B
Tue 11:39:18 PM 42.6920 -79.6840 87° East 506 582 35,000  Level FlightAware ADS-B
Tue 11:39:58 PM 42.6960 -79.5590 87° East 505 581 35,000  Level FlightAware ADS-B
Tue 11:40:41 PM 42.7010 -79.4200 87° East 506 582 35,000  Level FlightAware ADS-B
Tue 11:41:25 PM 42.7050 -79.2790 88° East 506 582 35,000  Level FlightAware ADS-B
Tue 11:42:03 PM 42.7090 -79.1600 87° East 505 581 35,000  Level FlightAware ADS-B
Tue 11:42:41 PM 42.7130 -79.0400 87° East 505 581 35,000  Level FlightAware ADS-B
Tue 11:43:21 PM 42.7160 -78.9120 88° East 504 580 35,000  Level FlightAware ADS-B
Tue 11:44:05 PM 42.7200 -78.7740 88° East 503 579 35,000  Level FlightAware ADS-B
Tue 11:44:39 PM 42.7230 -78.6660 88° East 503 579 35,000  Level FlightAware ADS-B
Tue 11:45:23 PM 42.7260 -78.5320 88° East 502 578 35,000 -214 Level FlightAware ADS-B
Tue 11:46:03 PM 42.7300 -78.4030 88° East 498 573 34,700 -769 Descending FlightAware ADS-B
Tue 11:46:41 PM 42.7330 -78.2830 88° East 498 573 34,000 -977 Descending FlightAware ADS-B
Tue 11:47:29 PM 42.7360 -78.1360 88° East 501 577 33,300 -955 Descending FlightAware ADS-B
Tue 11:48:09 PM 42.7380 -78.0090 89° East 504 580 32,600 -1,024 Descending FlightAware ADS-B
Tue 11:48:51 PM 42.7410 -77.8750 88° East 505 581 31,900 -970 Descending FlightAware ADS-B
Tue 11:49:48 PM 42.7440 -77.6970 89° East 511 588 31,000 -551 Descending FlightAware ADS-B
Tue 11:50:29 PM 42.7470 -77.5620 88° East 509 586 31,000  Level FlightAware ADS-B
Tue 11:51:11 PM 42.7490 -77.4300 89° East 490 564 31,000  Level FlightAware ADS-B
Tue 11:51:53 PM 42.7510 -77.3020 89° East 489 563 31,000  Level FlightAware ADS-B
Tue 11:52:35 PM 42.7530 -77.1730 89° East 490 564 31,000  Level FlightAware ADS-B
Tue 11:53:15 PM 42.7550 -77.0500 89° East 490 564 31,000 -349 Level FlightAware ADS-B
Tue 11:54:01 PM 42.7560 -76.9070 89° East 490 564 30,500 -1,295 Descending FlightAware ADS-B
Tue 11:54:43 PM 42.7570 -76.7780 89° East 496 571 29,100 -1,098 Descending FlightAware ADS-B
Tue 11:55:23 PM 42.7590 -76.6530 89° East 497 572 29,000 -71 Descending FlightAware ADS-B
Tue 11:56:07 PM 42.7600 -76.5170 89° East 489 563 29,000  Level FlightAware ADS-B
Tue 11:56:43 PM 42.7610 -76.4070 89° East 486 559 29,000  Level FlightAware ADS-B
Tue 11:57:26 PM 42.7620 -76.2780 89° East 484 557 29,000 -545 Level FlightAware ADS-B
Tue 11:58:11 PM 42.7620 -76.1420 90° East 474 545 28,200 -1,059 Descending FlightAware ADS-B
Tue 11:58:51 PM 42.7630 -76.0230 89° East 475 547 27,500 -1,000 Descending FlightAware ADS-B
Tue 11:59:35 PM 42.7630 -75.8930 90° East 474 545 26,800 -1,463 Descending FlightAware ADS-B
Wed 12:00:13 AM 42.7630 -75.7790 90° East 464 534 25,500 -2,195 Descending FlightAware ADS-B
Wed 12:00:57 AM 42.7630 -75.6530 90° East 453 521 23,800 -2,250 Descending FlightAware ADS-B
Wed 12:01:41 AM 42.7630 -75.5290 90° East 443 510 22,200 -2,114 Descending FlightAware ADS-B
Wed 12:02:25 AM 42.7630 -75.4090 90° East 431 496 20,700 -2,071 Descending FlightAware ADS-B
Wed 12:03:05 AM 42.7630 -75.3010 90° East 420 483 19,300 -2,108 Descending FlightAware ADS-B
Wed 12:03:39 AM 42.7630 -75.2140 90° East 410 472 18,100 -2,104 Descending FlightAware ADS-B
Wed 12:04:22 AM 42.7620 -75.1060 91° East 404 465 16,600 -2,214 Descending FlightAware ADS-B
Wed 12:05:03 AM 42.7620 -75.0000 90° East 395 455 15,000 -2,260 Descending FlightAware ADS-B
Wed 12:05:39 AM 42.7610 -74.9130 91° East 387 445 13,700 -1,565 Descending FlightAware ADS-B
Wed 12:06:35 AM 42.7610 -74.7880 90° East 382 440 12,600 -717 Descending FlightAware ADS-B
Wed 12:07:11 AM 42.7610 -74.7140 90° East 382 440 12,600  Level FlightAware ADS-B
Wed 12:07:59 AM 42.7610 -74.6160 90° East 382 440 12,600 -1,032 Level FlightAware ADS-B
Wed 12:08:44 AM 42.7569 -74.4958 90° East 354 407 11,000 -1,371 Descending Boston Center
Wed 12:09:44 AM 42.7653 -74.3858 84° East 333 383 10,200 -1,011 Descending Boston Center
Wed 12:10:19 AM 42.7747 -74.3125 80° East 301 346 9,400 -1,688 Descending Boston Center
Wed 12:11:20 AM 42.7869 -74.1942 82° East 290 334 7,500 -1,736 Descending Boston Center
Wed 12:12:20 AM 42.7992 -74.0869 81° East 289 333 5,900 -1,587 Descending Boston Center
Wed 12:13:21 AM 42.8089 -73.9797 83° East 283 326 4,300 -1,587 Descending Boston Center
Wed 12:14:21 AM 42.8206 -73.8753 81° East 274 315 2,700 -1,289 Descending Boston Center
Wed 12:15:22 AM 42.8050 -73.8042 107° East 196 226 1,700 -689 Descending Boston Center
Wed 12:16:23 AM 42.7653 -73.8003 176° South 137 158 1,300 99 Descending Boston Center
Wed 12:17:23 AM 42.7950 -73.7672 39° Northeast 190 219 1,900 198 Climbing Boston Center
Wed 12:18:24 AM 42.8111 -73.8128 296° West 157 181 1,700 -590 Descending Boston Center
Wed 12:19:25 AM 42.7756 -73.8064 172° South 121 139 700 -984 Descending Boston Center

Login

Don't have an account? Register now (free) for customized features, flight alerts, and more!